createdAt,value
2022-08-18T00:01:16.468Z,8.43
2022-08-18T00:03:56.431Z,8.73
2022-08-18T00:09:12.754Z,8.40
2022-08-18T00:11:47.457Z,8.53
2022-08-18T00:14:22.117Z,8.70
2022-08-18T00:16:52.207Z,7.77
2022-08-18T00:19:20.826Z,8.37
2022-08-18T00:22:14.572Z,8.20
2022-08-18T00:24:48.393Z,8.90
2022-08-18T00:27:21.718Z,8.43
2022-08-18T00:29:57.393Z,8.73
2022-08-18T00:32:29.909Z,8.33
2022-08-18T00:34:58.509Z,9.07
2022-08-18T00:37:30.846Z,8.30
2022-08-18T00:39:59.322Z,8.40
2022-08-18T00:42:31.263Z,7.63
2022-08-18T00:45:03.786Z,7.70
2022-08-18T00:47:41.091Z,8.50
2022-08-18T00:50:15.958Z,7.97
2022-08-18T00:52:49.378Z,7.73
2022-08-18T00:55:19.504Z,7.47
2022-08-18T00:57:51.067Z,7.53
2022-08-18T01:00:22.147Z,7.03
2022-08-18T01:02:55.839Z,7.33
2022-08-18T01:05:27.888Z,7.33
2022-08-18T01:07:56.283Z,6.80
2022-08-18T01:10:25.116Z,6.33
2022-08-18T01:12:55.676Z,6.93
2022-08-18T01:15:30.167Z,6.73
2022-08-18T01:18:17.274Z,6.80
2022-08-18T01:21:08.089Z,7.20
2022-08-18T01:23:38.543Z,5.80
2022-08-18T01:26:06.384Z,7.10
2022-08-18T01:28:39.520Z,6.50
2022-08-18T01:31:09.799Z,6.23
2022-08-18T01:33:41.184Z,6.40
2022-08-18T01:36:16.666Z,6.10
2022-08-18T01:38:48.242Z,6.27
2022-08-18T01:41:28.804Z,6.40
2022-08-18T01:43:59.271Z,6.30
2022-08-18T01:46:28.351Z,6.10
2022-08-18T01:48:58.639Z,7.10
2022-08-18T01:51:40.025Z,6.80
2022-08-18T01:54:12.381Z,6.27
2022-08-18T01:56:41.159Z,6.47
2022-08-18T01:59:14.739Z,6.23
2022-08-18T02:01:48.911Z,6.13
2022-08-18T02:04:34.915Z,6.03
2022-08-18T02:07:04.291Z,6.60
2022-08-18T02:09:34.669Z,6.73
2022-08-18T02:12:02.698Z,6.73
2022-08-18T02:14:31.216Z,6.20
2022-08-18T02:17:02.571Z,5.80
2022-08-18T02:19:35.131Z,6.23
2022-08-18T02:22:03.711Z,5.97
2022-08-18T02:24:33.291Z,5.83
2022-08-18T02:27:01.375Z,5.60
2022-08-18T02:29:29.535Z,5.70
2022-08-18T02:31:58.715Z,6.33
2022-08-18T02:34:27.146Z,6.00
2022-08-18T02:36:55.557Z,6.17
2022-08-18T02:39:23.529Z,5.43
2022-08-18T02:41:53.532Z,5.63
2022-08-18T02:44:21.850Z,5.57
2022-08-18T02:46:54.137Z,5.27
2022-08-18T02:49:22.738Z,5.93
2022-08-18T02:51:51.646Z,5.47
2022-08-18T02:54:20.564Z,6.07
2022-08-18T02:56:50.240Z,6.23
2022-08-18T02:59:24.423Z,6.00
2022-08-18T03:01:54.577Z,5.70
2022-08-18T03:04:29.134Z,5.10
2022-08-18T03:07:00.788Z,5.97
2022-08-18T03:09:30.786Z,5.30
2022-08-18T03:12:00.005Z,6.33
2022-08-18T03:14:29.913Z,5.50
2022-08-18T03:16:58.609Z,5.27
2022-08-18T03:19:28.425Z,5.40
2022-08-18T03:21:59.364Z,5.07
2022-08-18T03:24:32.515Z,6.17
2022-08-18T03:27:01.980Z,5.30
2022-08-18T03:29:32.944Z,4.93
2022-08-18T03:32:01.471Z,5.40
2022-08-18T03:34:29.829Z,5.20
2022-08-18T03:36:58.251Z,5.53
2022-08-18T03:39:27.614Z,5.27
2022-08-18T03:42:01.255Z,5.17
2022-08-18T03:44:33.425Z,5.00
2022-08-18T03:47:03.192Z,4.90
2022-08-18T03:49:32.377Z,5.07
2022-08-18T03:52:01.494Z,5.20
2022-08-18T03:54:32.304Z,5.40
2022-08-18T03:57:01.339Z,5.17
2022-08-18T03:59:31.800Z,5.30
2022-08-18T04:02:05.210Z,4.83
2022-08-18T04:04:33.239Z,4.63
2022-08-18T04:07:09.956Z,4.90
2022-08-18T04:09:39.816Z,5.17
2022-08-18T04:12:13.415Z,5.27
2022-08-18T04:14:47.910Z,5.30
2022-08-18T04:17:20.369Z,5.97
2022-08-18T04:19:48.823Z,5.67
2022-08-18T04:22:18.525Z,5.73
2022-08-18T04:24:47.328Z,5.10
2022-08-18T04:27:18.760Z,4.80
2022-08-18T04:29:46.824Z,5.97
2022-08-18T04:32:15.329Z,4.73
2022-08-18T04:34:45.163Z,4.80
2022-08-18T04:37:13.901Z,5.13
2022-08-18T04:39:42.368Z,5.10
2022-08-18T04:42:10.547Z,5.07
2022-08-18T04:44:38.846Z,5.03
2022-08-18T04:47:08.306Z,5.43
2022-08-18T04:49:36.835Z,5.53
2022-08-18T04:52:40.809Z,5.63
2022-08-18T04:55:09.988Z,5.63
2022-08-18T04:57:38.343Z,5.27
2022-08-18T05:00:08.896Z,5.73
2022-08-18T05:02:37.234Z,5.67
2022-08-18T05:05:05.684Z,6.20
2022-08-18T05:07:35.522Z,5.53
2022-08-18T05:10:04.115Z,5.10
2022-08-18T05:12:32.390Z,5.70
2022-08-18T05:15:01.264Z,5.37
2022-08-18T05:17:30.317Z,5.93
2022-08-18T05:20:06.859Z,6.27
2022-08-18T05:22:40.872Z,5.23
2022-08-18T05:25:10.489Z,5.50
2022-08-18T05:27:42.550Z,5.90
2022-08-18T05:30:11.455Z,5.70
2022-08-18T05:32:48.755Z,6.00
2022-08-18T05:35:23.329Z,5.90
2022-08-18T05:38:09.262Z,5.20
2022-08-18T05:40:38.161Z,6.27
2022-08-18T05:43:06.805Z,5.43
2022-08-18T05:45:35.809Z,5.53
2022-08-18T05:48:04.207Z,5.43
2022-08-18T05:50:35.384Z,5.67
2022-08-18T05:53:14.177Z,5.40
2022-08-18T05:56:05.311Z,5.70
2022-08-18T05:58:38.233Z,6.00
2022-08-18T06:01:10.157Z,6.00
2022-08-18T06:03:51.757Z,5.60
2022-08-18T06:06:22.363Z,5.53
2022-08-18T06:09:00.491Z,5.60
2022-08-18T06:11:28.792Z,5.37
2022-08-18T06:13:59.616Z,5.03
2022-08-18T06:16:47.247Z,4.73
2022-08-18T06:19:29.722Z,4.87
2022-08-18T06:22:07.842Z,5.27
2022-08-18T06:24:45.546Z,4.80
2022-08-18T06:27:21.053Z,5.17
2022-08-18T06:30:04.661Z,5.30
2022-08-18T06:32:47.341Z,5.03
2022-08-18T06:35:22.968Z,5.37
2022-08-18T06:38:17.073Z,5.20
2022-08-18T06:40:48.834Z,5.33
2022-08-18T06:43:19.760Z,5.83
2022-08-18T06:45:53.183Z,5.70
2022-08-18T06:48:28.520Z,5.57
2022-08-18T06:51:01.080Z,5.77
2022-08-18T06:53:55.730Z,5.40
2022-08-18T06:56:29.551Z,6.00
2022-08-18T06:59:15.939Z,5.37
2022-08-18T07:01:45.866Z,5.73
2022-08-18T07:04:32.662Z,5.93
2022-08-18T07:07:01.062Z,6.50
2022-08-18T07:09:35.486Z,5.67
2022-08-18T07:12:08.353Z,5.80
2022-08-18T07:14:45.573Z,5.33
2022-08-18T07:17:16.591Z,6.13
2022-08-18T07:19:45.010Z,5.77
2022-08-18T07:22:17.076Z,5.77
2022-08-18T07:24:47.538Z,6.13
2022-08-18T07:27:19.384Z,5.07
2022-08-18T07:30:01.995Z,6.23
2022-08-18T07:32:36.364Z,5.77
2022-08-18T07:35:07.469Z,6.20
2022-08-18T07:37:42.074Z,6.50
2022-08-18T07:40:24.211Z,5.77
2022-08-18T07:43:02.240Z,6.60
2022-08-18T07:45:37.350Z,6.20
2022-08-18T07:48:36.960Z,6.40
2022-08-18T07:51:25.229Z,6.37
2022-08-18T07:54:16.532Z,5.97
2022-08-18T07:57:04.788Z,5.90
2022-08-18T07:59:39.220Z,6.30
2022-08-18T08:02:21.450Z,6.47
2022-08-18T08:04:58.189Z,5.87
2022-08-18T08:07:30.064Z,7.00
2022-08-18T08:10:09.500Z,7.17
2022-08-18T08:12:42.240Z,6.13
2022-08-18T08:15:26.839Z,5.93
2022-08-18T08:18:05.966Z,6.50
2022-08-18T08:20:40.499Z,7.03
2022-08-18T08:23:17.902Z,6.40
2022-08-18T08:25:57.018Z,6.67
2022-08-18T08:28:38.376Z,6.70
2022-08-18T08:31:35.382Z,6.87
2022-08-18T08:34:10.976Z,7.20
2022-08-18T08:36:44.929Z,6.80
2022-08-18T08:39:19.313Z,6.37
2022-08-18T08:41:51.466Z,7.50
2022-08-18T08:44:24.814Z,6.73
2022-08-18T08:47:00.096Z,5.77
2022-08-18T08:49:37.082Z,7.20
2022-08-18T08:52:11.305Z,7.40
2022-08-18T08:54:48.377Z,6.87
2022-08-18T08:57:18.904Z,7.10
2022-08-18T08:59:51.206Z,6.43
2022-08-18T09:02:48.244Z,6.07
2022-08-18T09:05:23.172Z,6.20
2022-08-18T09:08:24.129Z,6.73
2022-08-18T09:11:32.858Z,6.17
2022-08-18T09:14:23.631Z,6.73
2022-08-18T09:17:02.713Z,7.40
2022-08-18T09:19:54.894Z,5.63
2022-08-18T09:22:40.184Z,6.37
2022-08-18T09:25:11.966Z,5.87
2022-08-18T09:28:09.447Z,6.03
2022-08-18T09:30:47.460Z,6.20
2022-08-18T09:33:34.114Z,6.93
2022-08-18T09:36:33.136Z,6.30
2022-08-18T09:39:36.816Z,6.23
2022-08-18T09:42:12.891Z,6.73
2022-08-18T09:45:06.305Z,6.27
2022-08-18T09:48:01.086Z,6.33
2022-08-18T09:50:55.218Z,6.97
2022-08-18T09:53:53.898Z,6.10
2022-08-18T09:56:55.763Z,6.10
2022-08-18T09:59:57.042Z,6.70
2022-08-18T10:09:52.039Z,6.27
2022-08-18T10:12:42.584Z,6.40
2022-08-18T10:15:51.683Z,6.27
2022-08-18T10:18:37.781Z,6.20
2022-08-18T10:21:17.834Z,7.03
2022-08-18T10:24:08.526Z,7.40
2022-08-18T10:27:26.918Z,6.10
2022-08-18T10:29:59.685Z,6.50
2022-08-18T10:32:54.639Z,6.40
2022-08-18T10:35:52.668Z,6.37
2022-08-18T10:38:26.151Z,5.47
2022-08-18T10:41:09.562Z,5.73
2022-08-18T10:43:55.742Z,6.70
2022-08-18T10:46:32.945Z,7.10
2022-08-18T10:49:09.639Z,6.83
2022-08-18T10:52:11.057Z,6.40
2022-08-18T10:54:51.971Z,6.17
2022-08-18T10:57:32.474Z,6.40
2022-08-18T11:00:07.098Z,5.33
2022-08-18T11:06:14.596Z,5.80
2022-08-18T11:08:54.794Z,6.23
2022-08-18T11:11:34.109Z,6.27
2022-08-18T11:14:24.652Z,5.70
2022-08-18T11:17:00.135Z,6.47
2022-08-18T11:19:30.924Z,5.10
2022-08-18T11:22:02.648Z,5.87
2022-08-18T11:24:37.740Z,6.23
2022-08-18T11:27:18.490Z,5.00
2022-08-18T11:29:47.555Z,6.03
2022-08-18T11:32:24.224Z,5.73
2022-08-18T11:35:03.430Z,5.90
2022-08-18T11:43:40.882Z,5.50
2022-08-18T11:49:24.123Z,5.97
2022-08-18T11:54:54.254Z,6.23
2022-08-18T11:57:30.529Z,6.40
2022-08-18T12:00:01.103Z,7.00
2022-08-18T12:02:33.890Z,6.93
2022-08-18T12:05:08.581Z,6.13
2022-08-18T12:07:57.157Z,6.80
2022-08-18T12:10:33.142Z,6.03
2022-08-18T12:13:03.302Z,6.77
2022-08-18T12:18:34.112Z,6.17
2022-08-18T12:21:09.983Z,6.00
2022-08-18T12:24:01.931Z,5.97
2022-08-18T12:26:43.383Z,5.77
2022-08-18T13:07:00.228Z,6.27
2022-08-18T13:09:53.598Z,6.20
2022-08-18T13:24:32.461Z,6.30
2022-08-18T13:36:04.995Z,6.80
2022-08-18T13:47:41.620Z,6.57
2022-08-18T13:50:52.275Z,7.77
2022-08-18T13:53:51.227Z,6.73
2022-08-18T14:29:46.412Z,5.63
2022-08-18T14:32:29.190Z,6.40
2022-08-18T14:38:11.731Z,6.40
2022-08-18T14:40:44.317Z,5.90
2022-08-18T14:43:16.159Z,6.57
2022-08-18T14:45:51.171Z,5.77
2022-08-18T14:48:27.043Z,6.37
2022-08-18T14:51:00.157Z,5.70
2022-08-18T14:53:37.125Z,6.20
2022-08-18T14:56:13.264Z,6.70
2022-08-18T14:58:44.736Z,5.47
2022-08-18T15:01:18.219Z,6.23
2022-08-18T15:12:44.626Z,5.83
2022-08-18T15:18:22.768Z,6.63
2022-08-18T15:21:19.639Z,5.77
2022-08-18T15:24:25.047Z,6.17
2022-08-18T15:27:05.611Z,5.90
2022-08-18T15:29:41.559Z,5.73
2022-08-18T15:32:22.858Z,6.13
2022-08-18T15:37:45.707Z,6.50
2022-08-18T15:40:21.834Z,6.33
2022-08-18T15:43:05.127Z,6.53
2022-08-18T15:45:56.533Z,6.57
2022-08-18T15:48:32.065Z,6.70
2022-08-18T15:51:11.462Z,5.60
2022-08-18T15:53:47.873Z,6.47
2022-08-18T15:56:30.149Z,6.10
2022-08-18T15:59:12.645Z,6.50
2022-08-18T16:01:49.964Z,6.33
2022-08-18T16:04:21.020Z,7.03
2022-08-18T16:07:05.304Z,5.83
2022-08-18T16:09:43.526Z,7.10
2022-08-18T16:12:13.929Z,6.63
2022-08-18T16:17:32.912Z,6.77
2022-08-18T16:20:05.679Z,6.17
2022-08-18T16:22:35.375Z,6.80
2022-08-18T16:25:29.658Z,6.33
2022-08-18T16:28:07.711Z,6.63
2022-08-18T16:30:54.210Z,7.23
2022-08-18T16:33:30.041Z,6.73
2022-08-18T16:36:00.976Z,6.30
2022-08-18T16:41:46.197Z,7.37
2022-08-18T16:44:44.164Z,7.13
2022-08-18T16:53:41.480Z,6.83
2022-08-18T17:02:33.369Z,7.17
2022-08-18T17:05:18.062Z,7.27
2022-08-18T17:07:48.150Z,7.03
2022-08-18T17:13:12.959Z,7.40
2022-08-18T17:15:54.821Z,7.13
2022-08-18T17:18:34.765Z,7.67
2022-08-18T17:21:08.749Z,7.97
2022-08-18T17:23:42.558Z,7.07
2022-08-18T17:26:56.276Z,7.37
2022-08-18T17:29:57.739Z,7.30
2022-08-18T17:32:44.256Z,6.70
2022-08-18T17:35:26.950Z,7.47
2022-08-18T17:38:10.948Z,4.70
2022-08-18T17:40:44.995Z,5.00
2022-08-18T17:43:17.338Z,4.80
2022-08-18T17:45:58.533Z,5.10
2022-08-18T17:48:31.375Z,8.67
2022-08-18T17:51:23.419Z,13.10
2022-08-18T17:53:52.244Z,15.23
2022-08-18T17:56:23.639Z,15.67
2022-08-18T17:59:45.531Z,12.30
2022-08-18T18:02:28.632Z,13.40
2022-08-18T18:05:02.424Z,13.97
2022-08-18T18:07:38.419Z,13.93
2022-08-18T18:10:31.177Z,14.60
2022-08-18T18:16:26.921Z,13.20
2022-08-18T18:46:53.237Z,2.40
2022-08-18T19:08:43.755Z,3.17
2022-08-18T19:30:16.664Z,2.90
2022-08-18T19:58:25.735Z,3.07
2022-08-18T20:00:58.259Z,2.73
2022-08-18T20:03:51.910Z,2.50
2022-08-18T20:06:54.394Z,2.70
2022-08-18T20:09:44.455Z,2.27
2022-08-18T20:12:40.442Z,2.17
2022-08-18T20:15:16.585Z,1.90
2022-08-18T20:18:19.454Z,2.23
2022-08-18T20:21:32.805Z,2.57
2022-08-18T20:24:30.561Z,4.07
2022-08-18T20:27:16.926Z,3.90
2022-08-18T20:29:48.100Z,4.47
2022-08-18T20:32:29.679Z,4.40
2022-08-18T20:35:17.061Z,6.60
2022-08-18T20:37:45.747Z,7.37
2022-08-18T20:40:40.499Z,8.20
2022-08-18T20:43:26.548Z,8.07
2022-08-18T20:46:18.212Z,8.10
2022-08-18T20:49:10.875Z,9.23
2022-08-18T20:51:52.347Z,9.57
2022-08-18T20:54:38.955Z,10.77
2022-08-18T20:57:26.542Z,12.50
2022-08-18T21:00:02.752Z,13.40
2022-08-18T21:02:38.652Z,14.13
2022-08-18T21:05:27.516Z,14.57
2022-08-18T21:08:04.202Z,14.77
2022-08-18T21:10:36.365Z,15.60
2022-08-18T21:13:07.959Z,14.77
2022-08-18T21:15:38.590Z,14.63
2022-08-18T21:18:08.208Z,14.83
2022-08-18T21:20:38.366Z,15.57
2022-08-18T21:23:10.344Z,14.20
2022-08-18T21:25:49.486Z,15.20
2022-08-18T21:28:21.538Z,14.70
2022-08-18T21:30:56.756Z,14.20
2022-08-18T21:33:50.992Z,13.57
2022-08-18T21:36:25.615Z,14.27
2022-08-18T21:39:05.962Z,13.13
2022-08-18T21:41:35.698Z,14.40
2022-08-18T21:44:07.136Z,13.33
2022-08-18T21:46:36.015Z,13.60
2022-08-18T21:49:05.710Z,14.07
2022-08-18T21:51:44.880Z,13.53
2022-08-18T21:54:17.547Z,13.30
2022-08-18T21:56:46.325Z,12.57
2022-08-18T21:59:16.960Z,13.23
2022-08-18T22:01:50.701Z,13.40
2022-08-18T22:04:29.151Z,11.80
2022-08-18T22:07:04.854Z,13.07
2022-08-18T22:09:53.123Z,13.33
2022-08-18T22:12:46.357Z,12.30
2022-08-18T22:15:18.012Z,13.03
2022-08-18T22:18:00.956Z,13.57
2022-08-18T22:20:56.533Z,13.83
2022-08-18T22:24:07.161Z,13.67
2022-08-18T22:26:37.531Z,12.93
2022-08-18T22:29:18.790Z,13.40
2022-08-18T22:31:50.068Z,14.07
2022-08-18T22:34:27.723Z,14.00
2022-08-18T22:36:59.920Z,13.20
2022-08-18T22:39:31.574Z,12.93
2022-08-18T22:42:10.396Z,12.63
2022-08-18T22:44:39.695Z,11.20
2022-08-18T22:47:08.541Z,12.00
2022-08-18T22:49:37.752Z,11.73
2022-08-18T22:52:07.493Z,9.87
2022-08-18T22:54:37.801Z,9.33
2022-08-18T22:57:08.524Z,7.97
2022-08-18T22:59:37.231Z,6.83
2022-08-18T23:02:11.720Z,7.30
2022-08-18T23:04:41.689Z,6.63
2022-08-18T23:07:10.240Z,6.33
2022-08-18T23:09:40.687Z,6.33
2022-08-18T23:12:14.722Z,6.13
2022-08-18T23:14:46.264Z,6.03
2022-08-18T23:17:15.366Z,5.23
2022-08-18T23:19:47.157Z,5.97
2022-08-18T23:22:16.261Z,5.73
2022-08-18T23:24:46.465Z,5.30
2022-08-18T23:27:17.074Z,5.07
2022-08-18T23:29:45.885Z,4.90
2022-08-18T23:32:14.490Z,4.63
2022-08-18T23:34:43.050Z,5.30
2022-08-18T23:37:12.073Z,4.90
2022-08-18T23:39:41.914Z,4.60
2022-08-18T23:42:14.274Z,4.60
2022-08-18T23:44:43.661Z,4.27
2022-08-18T23:49:55.004Z,4.33
2022-08-18T23:52:23.649Z,4.60
2022-08-18T23:54:52.234Z,3.80
2022-08-18T23:57:22.462Z,3.80
2022-08-18T23:59:51.630Z,4.20
